Siyay — CFN6563 — position and weather

sailwx.info

Track history (hours):
 
Tides and Currents Weather Stations Pressure Air Temp Water Temp Dewpoint Dewpoint Depression Visibility Wind Speed Wind Dir Waves Ship Positions

Siyay

Last reported at 2018-May-24 05:22 UTC. Time now 2018-May-24 06:17 UTC.
Position N 49°11' W 123°11'.

Length 28 m; draft 0.1 m.

Type: SAR. MMSI: 316001749.

Date/timePositionNaut miles runAvg speedWind from/ knotsBaromVisibWave heightAir tempDewpointWater temp
2018-May-24 05:22N 49°11' W 123°11'1025.7
2018-May-24 04:58N 49°15' W 123°25'10 1.7
2018-May-23 22:48N 49°11' W 123°11'0 0.0
2018-May-23 21:18N 49°11' W 123°11'512.5
2018-May-23 20:54N 49°06' W 123°08'1024.3
2018-May-23 20:30N 49°12' W 122°55'1120.8
2018-May-23 19:59N 49°07' W 123°09'  
2018-May-18 22:04N 49°11' W 123°11'324.5
2018-May-18 21:57N 49°11' W 123°15'1315.2
2018-May-18 21:05N 49°11' W 122°55'2 8.2
2018-May-18 20:53N 49°12' W 122°54'11 0.9
2018-May-18 08:16N 49°11' W 123°11'0 0.0
2018-May-18 00:34N 49°11' W 123°11'223.8
2018-May-18 00:30N 49°10' W 123°14'1 1.2
2018-May-17 23:33N 49°10' W 123°15'3 1.7
2018-May-17 22:00N 49°11' W 123°12'0 1.0
2018-May-17 21:30N 49°11' W 123°12'3 0.5
2018-May-17 16:26N 49°12' W 123°16'3 4.1
2018-May-17 15:40N 49°13' W 123°11'3 0.3
2018-May-17 05:41N 49°12' W 123°16'313.4
2018-May-17 05:28N 49°11' W 123°11'0 0.0
2018-May-16 17:41N 49°11' W 123°12'626.9
2018-May-16 17:28N 49°17' W 123°16'4 3.9
2018-May-16 16:19N 49°17' W 123°09'6 0.6
2018-May-16 06:10N 49°11' W 123°11'0 0.0
2018-May-16 05:52N 49°11' W 123°11'0 0.0
2018-May-16 05:16N 49°11' W 123°11'0 0.1
2018-May-16 04:46N 49°11' W 123°11'0 0.1
2018-May-16 04:28N 49°11' W 123°11'0 0.1
2018-May-16 03:58N 49°11' W 123°11'814.8
2018-May-16 03:27N 49°19' W 123°10'8 2.4
2018-May-16 00:12N 49°11' W 123°11'417.3
2018-May-15 23:59N 49°08' W 123°14'1017.6
2018-May-15 23:26N 49°09' W 122°60'512.7
2018-May-15 23:00N 49°13' W 122°53'2 3.7
2018-May-15 22:31N 49°11' W 122°55'1526.0
2018-May-15 21:57N 49°07' W 123°16'5 9.5
2018-May-15 21:24N 49°11' W 123°11'  
Track history (hours):
 
Tides and Currents Weather Stations Pressure Air Temp Water Temp Dewpoint Dewpoint Depression Visibility Wind Speed Wind Dir Waves Ship Positions

Siyay

Last reported at 2018-May-24 05:22 UTC. Time now 2018-May-24 06:17 UTC.
Position N 49°11' W 123°11'.

Length 28 m; draft 0.1 m.

Type: SAR. MMSI: 316001749.

Date/timePositionNaut miles runAvg speedWind from/ knotsBaromVisibWave heightAir tempDewpointWater temp
2018-May-24 05:22N 49°11' W 123°11'1025.7
2018-May-24 04:58N 49°15' W 123°25'10 1.7
2018-May-23 22:48N 49°11' W 123°11'0 0.0
2018-May-23 21:18N 49°11' W 123°11'512.5
2018-May-23 20:54N 49°06' W 123°08'1024.3
2018-May-23 20:30N 49°12' W 122°55'1120.8
2018-May-23 19:59N 49°07' W 123°09'  
2018-May-18 22:04N 49°11' W 123°11'324.5
2018-May-18 21:57N 49°11' W 123°15'1315.2
2018-May-18 21:05N 49°11' W 122°55'2 8.2
2018-May-18 20:53N 49°12' W 122°54'11 0.9
2018-May-18 08:16N 49°11' W 123°11'0 0.0
2018-May-18 00:34N 49°11' W 123°11'223.8
2018-May-18 00:30N 49°10' W 123°14'1 1.2
2018-May-17 23:33N 49°10' W 123°15'3 1.7
2018-May-17 22:00N 49°11' W 123°12'0 1.0
2018-May-17 21:30N 49°11' W 123°12'3 0.5
2018-May-17 16:26N 49°12' W 123°16'3 4.1
2018-May-17 15:40N 49°13' W 123°11'3 0.3
2018-May-17 05:41N 49°12' W 123°16'313.4
2018-May-17 05:28N 49°11' W 123°11'0 0.0
2018-May-16 17:41N 49°11' W 123°12'626.9
2018-May-16 17:28N 49°17' W 123°16'4 3.9
2018-May-16 16:19N 49°17' W 123°09'6 0.6
2018-May-16 06:10N 49°11' W 123°11'0 0.0
2018-May-16 05:52N 49°11' W 123°11'0 0.0
2018-May-16 05:16N 49°11' W 123°11'0 0.1
2018-May-16 04:46N 49°11' W 123°11'0 0.1
2018-May-16 04:28N 49°11' W 123°11'0 0.1
2018-May-16 03:58N 49°11' W 123°11'814.8
2018-May-16 03:27N 49°19' W 123°10'8 2.4
2018-May-16 00:12N 49°11' W 123°11'417.3
2018-May-15 23:59N 49°08' W 123°14'1017.6
2018-May-15 23:26N 49°09' W 122°60'512.7
2018-May-15 23:00N 49°13' W 122°53'2 3.7
2018-May-15 22:31N 49°11' W 122°55'1526.0
2018-May-15 21:57N 49°07' W 123°16'5 9.5
2018-May-15 21:24N 49°11' W 123°11'  

Dump ship's entire track history